createdAt,value
2022-12-23T00:01:27.177Z,9.50
2022-12-23T00:03:57.741Z,9.50
2022-12-23T00:06:24.586Z,9.50
2022-12-23T00:08:57.972Z,9.60
2022-12-23T00:11:25.705Z,9.60
2022-12-23T00:14:14.794Z,9.60
2022-12-23T00:16:46.979Z,9.60
2022-12-23T00:19:13.662Z,9.60
2022-12-23T00:21:40.418Z,9.60
2022-12-23T00:24:07.166Z,9.60
2022-12-23T00:26:33.909Z,9.60
2022-12-23T00:29:00.633Z,9.60
2022-12-23T00:31:27.367Z,9.60
2022-12-23T00:33:54.362Z,9.60
2022-12-23T00:36:29.664Z,9.70
2022-12-23T00:39:16.573Z,9.60
2022-12-23T00:42:02.089Z,9.60
2022-12-23T00:44:29.019Z,9.60
2022-12-23T00:46:55.885Z,9.60
2022-12-23T00:49:41.507Z,9.70
2022-12-23T00:52:11.769Z,9.80
2022-12-23T00:54:38.655Z,9.80
2022-12-23T00:57:05.425Z,9.80
2022-12-23T00:59:32.949Z,9.80
2022-12-23T01:02:18.292Z,9.70
2022-12-23T01:05:03.574Z,9.80
2022-12-23T01:07:30.299Z,9.90
2022-12-23T01:09:56.941Z,9.90
2022-12-23T01:12:23.772Z,9.90
2022-12-23T01:14:50.427Z,10.00
2022-12-23T01:17:18.472Z,9.90
2022-12-23T01:19:45.272Z,9.90
2022-12-23T01:22:11.954Z,10.00
2022-12-23T01:24:38.675Z,10.00
2022-12-23T01:27:05.340Z,10.00
2022-12-23T01:29:32.050Z,10.00
2022-12-23T01:31:58.768Z,10.10
2022-12-23T01:34:28.539Z,10.00
2022-12-23T01:36:59.287Z,10.10
2022-12-23T01:39:25.971Z,10.10
2022-12-23T01:42:11.060Z,10.00
2022-12-23T01:44:57.253Z,10.10
2022-12-23T01:47:49.430Z,10.10
2022-12-23T01:50:53.301Z,10.10
2022-12-23T01:53:28.000Z,10.10
2022-12-23T01:56:06.385Z,10.10
2022-12-23T01:58:39.636Z,10.10
2022-12-23T02:01:26.260Z,10.10
2022-12-23T02:03:57.522Z,10.20
2022-12-23T02:06:49.533Z,10.20
2022-12-23T02:09:20.258Z,10.20
2022-12-23T02:12:14.117Z,10.30
2022-12-23T02:15:30.371Z,10.30
2022-12-23T02:18:19.948Z,10.30
2022-12-23T02:21:14.567Z,10.40
2022-12-23T02:23:54.677Z,10.40
2022-12-23T02:27:01.645Z,10.40
2022-12-23T02:30:03.739Z,10.50
2022-12-23T02:32:59.024Z,10.50
2022-12-23T02:35:38.875Z,10.50
2022-12-23T02:38:26.500Z,10.50
2022-12-23T02:41:10.561Z,10.50
2022-12-23T02:43:47.279Z,10.50
2022-12-23T02:46:22.215Z,10.60
2022-12-23T02:49:07.727Z,10.50
2022-12-23T02:51:40.391Z,10.60
2022-12-23T02:54:12.530Z,10.60
2022-12-23T02:56:44.863Z,10.60
2022-12-23T02:59:17.419Z,10.60
2022-12-23T03:01:46.016Z,10.70
2022-12-23T03:04:14.018Z,10.70
2022-12-23T03:06:43.174Z,10.70
2022-12-23T03:09:29.916Z,10.70
2022-12-23T03:12:20.381Z,10.70
2022-12-23T03:15:14.395Z,10.80
2022-12-23T03:17:59.096Z,10.90
2022-12-23T03:20:34.663Z,10.90
2022-12-23T03:23:22.177Z,10.90
2022-12-23T03:26:01.641Z,10.90
2022-12-23T03:28:31.302Z,10.90
2022-12-23T03:31:00.478Z,10.90
2022-12-23T03:33:37.851Z,11.00
2022-12-23T03:36:16.554Z,11.00
2022-12-23T03:38:45.057Z,10.90
2022-12-23T03:41:18.914Z,11.00
2022-12-23T03:44:18.557Z,10.90
2022-12-23T03:46:55.243Z,10.90
2022-12-23T03:49:31.441Z,10.80
2022-12-23T03:52:21.231Z,10.80
2022-12-23T03:54:54.731Z,10.90
2022-12-23T03:57:31.416Z,10.90
2022-12-23T03:59:58.097Z,11.00
2022-12-23T04:02:28.030Z,11.00
2022-12-23T04:05:25.061Z,10.90
2022-12-23T04:08:16.617Z,11.00
2022-12-23T04:10:43.505Z,11.00
2022-12-23T04:13:10.321Z,11.00
2022-12-23T04:15:41.525Z,11.00
2022-12-23T04:18:09.908Z,11.00
2022-12-23T04:20:36.869Z,11.00
2022-12-23T04:23:03.887Z,11.00
2022-12-23T04:25:30.576Z,11.00
2022-12-23T04:27:57.190Z,11.00
2022-12-23T04:30:27.955Z,11.10
2022-12-23T04:32:58.204Z,11.10
2022-12-23T04:35:24.866Z,11.10
2022-12-23T04:37:51.537Z,11.10
2022-12-23T04:40:18.326Z,11.20
2022-12-23T04:42:44.973Z,11.20
2022-12-23T04:45:11.774Z,11.20
2022-12-23T04:47:38.419Z,11.20
2022-12-23T04:50:06.005Z,11.20
2022-12-23T04:52:32.676Z,11.20
2022-12-23T04:54:59.330Z,11.20
2022-12-23T04:57:26.000Z,11.30
2022-12-23T04:59:52.644Z,11.20
2022-12-23T05:02:19.377Z,11.30
2022-12-23T05:04:46.146Z,11.30
2022-12-23T05:07:12.849Z,11.30
2022-12-23T05:09:39.681Z,11.30
2022-12-23T05:12:06.424Z,11.30
2022-12-23T05:14:33.108Z,11.30
2022-12-23T05:17:05.408Z,11.30
2022-12-23T05:19:34.220Z,11.30
2022-12-23T05:22:00.868Z,11.30
2022-12-23T05:24:27.524Z,11.40
2022-12-23T05:26:59.799Z,11.40
2022-12-23T05:29:27.982Z,11.40
2022-12-23T05:31:55.088Z,11.40
2022-12-23T05:34:22.150Z,11.40
2022-12-23T05:36:48.887Z,11.40
2022-12-23T05:39:15.484Z,11.40
2022-12-23T05:41:42.153Z,11.30
2022-12-23T05:44:08.822Z,11.30
2022-12-23T05:46:35.590Z,11.30
2022-12-23T05:49:02.332Z,11.30
2022-12-23T05:51:28.978Z,11.30
2022-12-23T05:53:55.653Z,11.30
2022-12-23T05:56:22.284Z,11.30
2022-12-23T05:58:49.063Z,11.30
2022-12-23T06:01:15.822Z,11.30
2022-12-23T06:03:42.688Z,11.40
2022-12-23T06:06:09.650Z,11.40
2022-12-23T06:08:36.290Z,11.40
2022-12-23T06:11:05.477Z,11.40
2022-12-23T06:13:32.187Z,11.40
2022-12-23T06:15:59.463Z,11.30
2022-12-23T06:18:26.270Z,11.30
2022-12-23T06:20:52.908Z,11.30
2022-12-23T06:23:19.608Z,11.30
2022-12-23T06:25:46.213Z,11.30
2022-12-23T06:28:13.041Z,11.30
2022-12-23T06:30:39.731Z,11.30
2022-12-23T06:33:06.455Z,11.30
2022-12-23T06:35:33.149Z,11.30
2022-12-23T06:37:59.849Z,11.30
2022-12-23T06:40:28.947Z,11.30
2022-12-23T06:42:55.684Z,11.30
2022-12-23T06:45:22.401Z,11.30
2022-12-23T06:47:49.057Z,11.30
2022-12-23T06:50:15.839Z,11.30
2022-12-23T06:52:42.546Z,11.30
2022-12-23T06:55:09.507Z,11.30
2022-12-23T06:57:36.284Z,11.40
2022-12-23T07:00:04.965Z,11.30
2022-12-23T07:02:31.776Z,11.30
2022-12-23T07:04:58.569Z,11.30
2022-12-23T07:07:25.231Z,11.30
2022-12-23T07:09:52.197Z,11.20
2022-12-23T07:12:19.304Z,11.20
2022-12-23T07:14:45.948Z,11.20
2022-12-23T07:17:12.674Z,11.20
2022-12-23T07:19:41.596Z,11.20
2022-12-23T07:22:10.111Z,11.20
2022-12-23T07:24:37.595Z,11.20
2022-12-23T07:27:04.539Z,11.10
2022-12-23T07:29:31.247Z,11.10
2022-12-23T07:31:58.119Z,11.10
2022-12-23T07:34:24.879Z,11.10
2022-12-23T07:36:51.594Z,11.10
2022-12-23T07:39:18.232Z,11.10
2022-12-23T07:41:47.397Z,11.10
2022-12-23T07:44:14.241Z,11.10
2022-12-23T07:46:40.955Z,11.20
2022-12-23T07:49:07.654Z,11.20
2022-12-23T07:51:34.413Z,11.20
2022-12-23T07:54:01.101Z,11.20
2022-12-23T07:56:27.767Z,11.20
2022-12-23T07:58:54.661Z,11.20
2022-12-23T08:01:21.742Z,11.20
2022-12-23T08:03:48.917Z,11.20
2022-12-23T08:06:16.656Z,11.30
2022-12-23T08:08:45.211Z,11.30
2022-12-23T08:11:13.334Z,11.30
2022-12-23T08:13:42.188Z,11.30
2022-12-23T08:16:10.259Z,11.20
2022-12-23T08:18:40.337Z,11.20
2022-12-23T08:21:11.788Z,11.20
2022-12-23T08:23:38.490Z,11.20
2022-12-23T08:26:09.790Z,11.20
2022-12-23T08:28:38.766Z,11.20
2022-12-23T08:31:16.993Z,11.30
2022-12-23T08:33:46.238Z,11.30
2022-12-23T08:36:22.345Z,11.30
2022-12-23T08:38:51.106Z,11.30
2022-12-23T08:41:22.129Z,11.30
2022-12-23T08:43:49.564Z,11.40
2022-12-23T08:46:16.298Z,11.40
2022-12-23T08:48:48.937Z,11.40
2022-12-23T08:51:18.124Z,11.40
2022-12-23T08:53:45.383Z,11.40
2022-12-23T08:56:19.374Z,11.40
2022-12-23T08:58:47.955Z,11.40
2022-12-23T09:01:17.243Z,11.40
2022-12-23T09:03:45.138Z,11.40
2022-12-23T09:06:28.295Z,11.40
2022-12-23T09:08:56.282Z,11.40
2022-12-23T09:11:25.259Z,11.40
2022-12-23T09:13:52.270Z,11.40
2022-12-23T09:16:19.332Z,11.40
2022-12-23T09:18:46.048Z,11.40
2022-12-23T09:21:17.163Z,11.40
2022-12-23T09:23:43.959Z,11.40
2022-12-23T09:26:16.625Z,11.40
2022-12-23T09:28:43.361Z,11.50
2022-12-23T09:31:12.505Z,11.50
2022-12-23T09:33:39.657Z,11.50
2022-12-23T09:36:06.711Z,11.50
2022-12-23T09:38:34.023Z,11.60
2022-12-23T09:41:26.135Z,11.70
2022-12-23T09:44:11.206Z,11.80
2022-12-23T09:46:49.145Z,11.70
2022-12-23T09:49:18.555Z,11.70
2022-12-23T09:51:47.313Z,11.70
2022-12-23T09:54:29.417Z,11.70
2022-12-23T09:57:21.203Z,11.70
2022-12-23T10:00:16.850Z,11.70
2022-12-23T10:02:53.152Z,11.60
2022-12-23T10:05:32.860Z,11.70
2022-12-23T10:08:10.523Z,11.70
2022-12-23T10:10:50.923Z,11.60
2022-12-23T10:13:34.925Z,11.60
2022-12-23T10:16:09.591Z,11.60
2022-12-23T10:18:53.225Z,11.70
2022-12-23T10:21:47.648Z,11.70
2022-12-23T10:24:33.849Z,11.70
2022-12-23T10:27:04.725Z,11.80
2022-12-23T10:29:33.245Z,11.80
2022-12-23T10:32:06.783Z,11.80
2022-12-23T10:34:45.182Z,11.80
2022-12-23T10:37:18.171Z,11.90
2022-12-23T10:39:50.716Z,11.90
2022-12-23T10:42:34.088Z,12.00
2022-12-23T10:45:00.748Z,12.10
2022-12-23T10:47:45.976Z,12.00
2022-12-23T10:50:46.416Z,12.00
2022-12-23T10:53:26.328Z,12.10
2022-12-23T10:55:54.131Z,12.10
2022-12-23T10:58:22.046Z,12.20
2022-12-23T11:00:54.335Z,12.10
2022-12-23T11:03:31.917Z,12.20
2022-12-23T11:06:00.311Z,12.20
2022-12-23T11:08:30.614Z,12.30
2022-12-23T11:11:00.255Z,12.20
2022-12-23T11:13:39.969Z,12.30
2022-12-23T11:16:19.294Z,12.30
2022-12-23T11:19:15.863Z,12.20
2022-12-23T11:21:55.641Z,12.20
2022-12-23T11:24:23.705Z,12.20
2022-12-23T11:26:59.741Z,12.20
2022-12-23T11:29:36.133Z,12.20
2022-12-23T11:32:15.297Z,12.10
2022-12-23T11:34:45.344Z,12.10
2022-12-23T11:37:29.518Z,12.00
2022-12-23T11:39:56.542Z,12.10
2022-12-23T11:42:29.421Z,12.20
2022-12-23T11:44:59.256Z,12.30
2022-12-23T11:47:35.698Z,12.30
2022-12-23T11:50:30.138Z,12.30
2022-12-23T11:53:20.119Z,12.30
2022-12-23T11:55:59.692Z,12.30
2022-12-23T11:58:28.734Z,12.40
2022-12-23T12:00:59.080Z,12.40
2022-12-23T12:03:35.042Z,12.40
2022-12-23T12:06:05.677Z,12.40
2022-12-23T12:08:42.358Z,12.30
2022-12-23T12:11:37.857Z,12.40
2022-12-23T12:14:07.860Z,12.50
2022-12-23T12:17:13.689Z,12.60
2022-12-23T12:20:04.873Z,12.60
2022-12-23T12:22:51.340Z,12.60
2022-12-23T12:25:20.895Z,12.60
2022-12-23T12:27:57.855Z,12.60
2022-12-23T12:30:31.918Z,12.50
2022-12-23T12:33:04.102Z,12.50
2022-12-23T12:35:58.939Z,12.60
2022-12-23T12:38:34.600Z,12.60
2022-12-23T12:41:07.291Z,12.60
2022-12-23T12:44:20.072Z,12.70
2022-12-23T12:46:52.334Z,12.70
2022-12-23T12:49:32.612Z,12.70
2022-12-23T12:52:08.703Z,12.70
2022-12-23T12:54:54.693Z,12.70
2022-12-23T12:57:23.156Z,12.70
2022-12-23T12:59:58.540Z,12.60
2022-12-23T13:02:57.564Z,12.60
2022-12-23T13:05:51.672Z,12.70
2022-12-23T13:08:45.898Z,12.60
2022-12-23T13:11:45.453Z,12.60
2022-12-23T13:14:18.264Z,12.60
2022-12-23T13:17:10.844Z,12.60
2022-12-23T13:19:55.543Z,12.70
2022-12-23T13:22:32.796Z,12.60
2022-12-23T13:25:22.331Z,12.60
2022-12-23T13:27:57.378Z,12.60
2022-12-23T13:30:28.196Z,12.60
2022-12-23T13:33:13.209Z,12.60
2022-12-23T13:36:18.412Z,12.70
2022-12-23T13:39:18.769Z,12.70
2022-12-23T13:42:04.592Z,12.70
2022-12-23T13:44:34.553Z,12.80
2022-12-23T13:47:13.351Z,12.80
2022-12-23T13:49:40.032Z,12.70
2022-12-23T13:52:31.626Z,12.70
2022-12-23T13:55:01.434Z,12.70
2022-12-23T13:57:40.086Z,12.70
2022-12-23T14:00:19.034Z,12.70
2022-12-23T14:02:50.781Z,12.70
2022-12-23T14:05:45.217Z,12.80
2022-12-23T14:08:25.892Z,12.80
2022-12-23T14:10:54.935Z,12.70
2022-12-23T14:13:25.114Z,12.70
2022-12-23T14:16:17.937Z,12.70
2022-12-23T14:19:04.404Z,12.70
2022-12-23T14:21:37.098Z,12.70
2022-12-23T14:24:09.235Z,12.70
2022-12-23T14:26:50.783Z,12.80
2022-12-23T14:29:53.621Z,12.70
2022-12-23T14:32:25.707Z,12.70
2022-12-23T14:35:44.480Z,12.70
2022-12-23T14:38:14.231Z,12.70
2022-12-23T14:40:44.116Z,12.60
2022-12-23T14:43:23.407Z,12.60
2022-12-23T14:45:52.513Z,12.60
2022-12-23T14:48:34.409Z,12.60
2022-12-23T14:51:24.710Z,12.60
2022-12-23T14:53:52.171Z,12.60
2022-12-23T14:56:18.829Z,12.60
2022-12-23T14:58:54.398Z,12.60
2022-12-23T15:01:37.282Z,12.60
2022-12-23T15:04:27.422Z,12.70
2022-12-23T15:06:58.870Z,12.70
2022-12-23T15:09:31.651Z,12.70
2022-12-23T15:12:02.062Z,12.70
2022-12-23T15:14:35.892Z,12.70
2022-12-23T15:17:30.296Z,12.70
2022-12-23T15:20:10.859Z,12.70
2022-12-23T15:22:39.106Z,12.70
2022-12-23T15:25:18.998Z,12.70
2022-12-23T15:27:46.025Z,12.70
2022-12-23T15:30:13.908Z,12.70
2022-12-23T15:32:46.575Z,12.70
2022-12-23T15:35:26.326Z,12.70
2022-12-23T15:37:53.334Z,12.70
2022-12-23T15:40:37.322Z,12.70
2022-12-23T15:43:23.834Z,12.70
2022-12-23T15:45:51.471Z,12.70
2022-12-23T15:48:34.750Z,12.80
2022-12-23T15:51:11.553Z,12.80
2022-12-23T15:53:42.694Z,12.80
2022-12-23T15:56:19.542Z,12.90
2022-12-23T15:58:46.360Z,12.90
2022-12-23T16:01:18.328Z,12.90
2022-12-23T16:03:59.764Z,12.80
2022-12-23T16:06:31.859Z,12.90
2022-12-23T16:09:18.601Z,12.90
2022-12-23T16:11:51.267Z,12.80
2022-12-23T16:14:23.327Z,12.90
2022-12-23T16:16:51.074Z,12.90
2022-12-23T16:19:53.500Z,12.80
2022-12-23T16:22:33.270Z,12.80
2022-12-23T16:25:05.819Z,12.80
2022-12-23T16:27:32.600Z,12.90
2022-12-23T16:30:03.224Z,12.90
2022-12-23T16:32:30.062Z,12.80
2022-12-23T16:34:56.776Z,12.90
2022-12-23T16:37:23.479Z,12.90
2022-12-23T16:39:50.181Z,12.90
2022-12-23T16:42:18.953Z,12.90
2022-12-23T16:44:45.573Z,12.90
2022-12-23T16:47:17.206Z,13.00
2022-12-23T16:49:43.954Z,13.00
2022-12-23T16:52:14.251Z,13.00
2022-12-23T16:54:42.518Z,12.90
2022-12-23T16:57:10.360Z,12.90
2022-12-23T16:59:40.892Z,12.80
2022-12-23T17:02:21.040Z,12.80
2022-12-23T17:04:47.827Z,12.80
2022-12-23T17:07:14.523Z,12.80
2022-12-23T17:09:41.126Z,12.80
2022-12-23T17:12:09.839Z,12.90
2022-12-23T17:14:36.573Z,13.10
2022-12-23T17:17:14.344Z,13.10
2022-12-23T17:19:41.649Z,13.00
2022-12-23T17:22:12.081Z,13.00
2022-12-23T17:24:38.809Z,13.00
2022-12-23T17:27:13.583Z,13.00
2022-12-23T17:29:40.713Z,13.10
2022-12-23T17:32:15.015Z,13.00
2022-12-23T17:34:41.837Z,12.90
2022-12-23T17:37:19.937Z,13.00
2022-12-23T17:39:48.056Z,13.00
2022-12-23T17:42:23.318Z,13.00
2022-12-23T17:44:52.139Z,13.00
2022-12-23T17:47:22.807Z,13.10
2022-12-23T17:49:50.292Z,13.00
2022-12-23T17:52:19.539Z,13.00
2022-12-23T17:54:48.245Z,13.00
2022-12-23T17:57:21.444Z,13.00
2022-12-23T17:59:49.599Z,13.00
2022-12-23T18:02:29.415Z,13.00
2022-12-23T18:04:56.488Z,13.00
2022-12-23T18:07:23.280Z,13.00
2022-12-23T18:09:50.918Z,13.00
2022-12-23T18:12:32.984Z,13.00
2022-12-23T18:15:00.482Z,13.00
2022-12-23T18:17:27.662Z,13.00
2022-12-23T18:19:55.376Z,12.90
2022-12-23T18:22:24.336Z,12.90
2022-12-23T18:24:56.905Z,13.00
2022-12-23T18:27:25.842Z,12.90
2022-12-23T18:29:52.767Z,12.90
2022-12-23T18:32:22.513Z,12.70
2022-12-23T18:34:49.948Z,12.60
2022-12-23T18:37:17.108Z,12.60
2022-12-23T18:39:44.243Z,12.50
2022-12-23T18:42:16.281Z,12.50
2022-12-23T18:44:44.569Z,12.50
2022-12-23T18:47:11.818Z,12.40
2022-12-23T18:49:38.817Z,12.40
2022-12-23T18:52:12.801Z,12.30
2022-12-23T18:54:40.126Z,12.40
2022-12-23T18:57:07.411Z,12.30
2022-12-23T18:59:37.751Z,12.20
2022-12-23T19:02:05.066Z,12.20
2022-12-23T19:04:32.063Z,12.20
2022-12-23T19:06:58.900Z,12.30
2022-12-23T19:09:26.411Z,12.40
2022-12-23T19:11:54.204Z,12.30
2022-12-23T19:14:21.071Z,12.30
2022-12-23T19:16:51.914Z,12.20
2022-12-23T19:19:19.968Z,12.10
2022-12-23T19:21:46.766Z,12.10
2022-12-23T19:24:14.036Z,12.10
2022-12-23T19:26:41.250Z,12.30
2022-12-23T19:29:08.776Z,12.30
2022-12-23T19:31:35.677Z,12.30
2022-12-23T19:34:02.532Z,12.50
2022-12-23T19:36:29.344Z,12.50
2022-12-23T19:38:57.119Z,12.50
2022-12-23T19:41:24.460Z,12.60
2022-12-23T19:43:51.217Z,12.70
2022-12-23T19:46:18.435Z,12.70
2022-12-23T19:48:52.630Z,12.80
2022-12-23T19:51:19.491Z,12.80
2022-12-23T19:53:50.328Z,12.80
2022-12-23T19:56:21.179Z,12.80
2022-12-23T19:58:49.031Z,12.90
2022-12-23T20:01:18.355Z,12.90
2022-12-23T20:03:46.992Z,12.90
2022-12-23T20:06:35.671Z,13.00
2022-12-23T20:09:19.344Z,12.90
2022-12-23T20:12:02.336Z,12.90
2022-12-23T20:14:45.014Z,12.90
2022-12-23T20:17:20.179Z,12.80
2022-12-23T20:19:58.901Z,12.80
2022-12-23T20:22:31.879Z,12.70
2022-12-23T20:25:04.938Z,12.80
2022-12-23T20:27:38.746Z,12.70
2022-12-23T20:30:14.851Z,12.80
2022-12-23T20:33:01.205Z,12.70
2022-12-23T20:35:38.311Z,12.70
2022-12-23T20:38:15.975Z,12.60
2022-12-23T20:40:48.856Z,12.60
2022-12-23T20:43:29.924Z,12.60
2022-12-23T20:46:21.606Z,12.60
2022-12-23T20:49:11.125Z,12.60
2022-12-23T20:51:57.753Z,12.60
2022-12-23T20:54:45.201Z,12.60
2022-12-23T20:57:53.013Z,12.50
2022-12-23T21:00:55.948Z,12.50
2022-12-23T21:03:26.236Z,12.50
2022-12-23T21:06:17.370Z,12.50
2022-12-23T21:09:17.509Z,12.50
2022-12-23T21:14:43.069Z,12.40
2022-12-23T21:20:11.420Z,12.20
2022-12-23T21:22:48.934Z,12.20
2022-12-23T21:25:15.867Z,12.10
2022-12-23T21:27:42.772Z,12.10
2022-12-23T21:30:10.668Z,12.00
2022-12-23T21:32:37.428Z,12.00
2022-12-23T21:35:04.451Z,11.90
2022-12-23T21:37:32.401Z,11.90
2022-12-23T21:39:59.125Z,12.00
2022-12-23T21:42:25.898Z,12.00
2022-12-23T21:44:52.867Z,12.00
2022-12-23T21:47:19.550Z,11.90
2022-12-23T21:49:46.326Z,11.90
2022-12-23T21:52:13.145Z,11.90
2022-12-23T21:54:39.823Z,11.80
2022-12-23T21:57:06.555Z,11.70
2022-12-23T21:59:35.466Z,11.80
2022-12-23T22:02:02.705Z,11.80
2022-12-23T22:04:29.549Z,11.80
2022-12-23T22:06:56.238Z,11.70
2022-12-23T22:09:22.911Z,11.60
2022-12-23T22:11:49.707Z,11.70
2022-12-23T22:14:18.545Z,11.70
2022-12-23T22:16:45.663Z,11.60
2022-12-23T22:19:12.485Z,11.70
2022-12-23T22:21:39.730Z,11.70
2022-12-23T22:24:06.982Z,11.70
2022-12-23T22:26:34.221Z,11.60
2022-12-23T22:29:04.319Z,11.70
2022-12-23T22:31:34.151Z,11.60
2022-12-23T22:34:01.390Z,11.70
2022-12-23T22:36:28.682Z,11.60
2022-12-23T22:38:57.323Z,11.60
2022-12-23T22:41:25.126Z,11.50
2022-12-23T22:43:51.923Z,11.50
2022-12-23T22:46:18.972Z,11.70
2022-12-23T22:48:46.369Z,11.70
2022-12-23T22:51:40.696Z,11.50
2022-12-23T22:54:08.382Z,11.50
2022-12-23T22:56:35.100Z,11.40
2022-12-23T22:59:01.915Z,11.50
2022-12-23T23:01:33.989Z,11.40
2022-12-23T23:04:02.510Z,11.40
2022-12-23T23:06:31.889Z,11.40
2022-12-23T23:08:59.023Z,11.30
2022-12-23T23:11:27.047Z,11.30
2022-12-23T23:13:54.269Z,11.30
2022-12-23T23:16:23.250Z,11.30
2022-12-23T23:18:50.724Z,11.40
2022-12-23T23:21:17.623Z,11.20
2022-12-23T23:23:44.624Z,11.20
2022-12-23T23:26:11.639Z,11.10
2022-12-23T23:28:39.450Z,11.10
2022-12-23T23:31:39.874Z,11.00
2022-12-23T23:33:53.601Z,11.00
2022-12-23T23:36:20.553Z,11.10
2022-12-23T23:38:47.252Z,11.10
2022-12-23T23:41:17.389Z,11.00
2022-12-23T23:43:49.015Z,11.00
2022-12-23T23:46:15.801Z,11.00
2022-12-23T23:48:42.464Z,11.00
2022-12-23T23:51:10.075Z,11.00
2022-12-23T23:53:37.011Z,11.00
2022-12-23T23:56:08.182Z,11.10
2022-12-23T23:58:36.235Z,11.00
